Time,TemperatureF,DewpointF,PressureIn,WindDirection,WindDirectionDegrees,WindSpeedMPH,WindSpeedGustMPH,Humidity,HourlyPrecipIn,Conditions,Clouds,dailyrainin,SoftwareType,DateUTC
2013-04-25 00:03:00,44.6,21.6,29.88,North,-999,-999.0,-999.0,40,0.00,,,0.00,WSDL version 420,2013-04-25 05:03:00,
2013-04-25 00:09:00,44.0,20.9,29.88,North,-999,-999.0,-999.0,40,0.00,,,0.00,WSDL version 420,2013-04-25 05:09:00,
2013-04-25 00:15:00,44.2,21.7,29.88,North,-999,-999.0,-999.0,41,0.00,,,0.00,WSDL version 420,2013-04-25 05:15:00,
2013-04-25 00:21:00,44.2,21.4,29.88,North,-999,-999.0,-999.0,40,0.00,,,0.00,WSDL version 420,2013-04-25 05:21:00,
2013-04-25 00:27:00,43.6,20.8,29.88,North,-999,-999.0,-999.0,40,0.00,,,0.00,WSDL version 420,2013-04-25 05:27:00,
2013-04-25 00:33:00,43.3,20.6,29.88,North,-999,-999.0,-999.0,40,0.00,,,0.00,WSDL version 420,2013-04-25 05:33:00,
2013-04-25 00:39:00,42.8,20.2,29.88,North,-999,-999.0,-999.0,40,0.00,,,0.00,WSDL version 420,2013-04-25 05:39:00,
2013-04-25 00:45:00,42.7,20.3,29.88,North,-999,-999.0,-999.0,41,0.00,,,0.00,WSDL version 420,2013-04-25 05:45:00,
2013-04-25 00:51:00,42.4,20.4,29.88,North,-999,-999.0,-999.0,41,0.00,,,0.00,WSDL version 420,2013-04-25 05:51:00,
2013-04-25 00:57:00,41.9,19.9,29.88,North,-999,-999.0,-999.0,41,0.00,,,0.00,WSDL version 420,2013-04-25 05:57:00,
2013-04-25 01:03:00,42.2,20.6,29.88,North,-999,-999.0,-999.0,42,0.00,,,0.00,WSDL version 420,2013-04-25 06:03:00,
2013-04-25 01:09:00,42.6,21.2,29.88,North,-999,-999.0,-999.0,42,0.00,,,0.00,WSDL version 420,2013-04-25 06:09:00,
2013-04-25 01:15:00,42.8,21.2,29.88,North,-999,-999.0,-999.0,42,0.00,,,0.00,WSDL version 420,2013-04-25 06:15:00,
2013-04-25 01:21:00,42.4,20.4,29.88,North,-999,-999.0,-999.0,41,0.00,,,0.00,WSDL version 420,2013-04-25 06:21:00,
2013-04-25 01:27:00,42.0,20.1,29.88,North,-999,-999.0,-999.0,42,0.00,,,0.00,WSDL version 420,2013-04-25 06:27:00,
2013-04-25 01:33:00,42.2,20.8,29.88,North,-999,-999.0,-999.0,42,0.00,,,0.00,WSDL version 420,2013-04-25 06:33:00,
2013-04-25 01:39:00,42.1,20.1,29.88,North,-999,-999.0,-999.0,41,0.00,,,0.00,WSDL version 420,2013-04-25 06:39:00,
2013-04-25 01:45:00,41.8,20.0,29.88,North,-999,-999.0,-999.0,42,0.00,,,0.00,WSDL version 420,2013-04-25 06:45:00,
2013-04-25 01:51:00,41.9,20.2,29.88,North,-999,-999.0,-999.0,41,0.00,,,0.00,WSDL version 420,2013-04-25 06:51:00,
2013-04-25 01:57:00,41.8,19.9,29.88,North,-999,-999.0,-999.0,41,0.00,,,0.00,WSDL version 420,2013-04-25 06:57:00,
2013-04-25 02:03:00,42.0,20.4,29.88,North,-999,-999.0,-999.0,42,0.00,,,0.00,WSDL version 420,2013-04-25 07:03:00,
2013-04-25 02:09:00,41.9,19.9,29.88,North,-999,-999.0,-999.0,41,0.00,,,0.00,WSDL version 420,2013-04-25 07:09:00,
2013-04-25 02:15:00,41.8,19.9,29.88,North,-999,-999.0,-999.0,41,0.00,,,0.00,WSDL version 420,2013-04-25 07:15:00,
2013-04-25 02:21:00,41.4,19.5,29.88,North,-999,-999.0,-999.0,41,0.00,,,0.00,WSDL version 420,2013-04-25 07:21:00,
2013-04-25 02:27:00,41.3,19.7,29.88,North,-999,-999.0,-999.0,42,0.00,,,0.00,WSDL version 420,2013-04-25 07:27:00,
2013-04-25 02:33:00,41.4,19.5,29.88,North,-999,-999.0,-999.0,41,0.00,,,0.00,WSDL version 420,2013-04-25 07:33:00,
2013-04-25 02:39:00,41.5,19.7,29.88,North,-999,-999.0,-999.0,41,0.00,,,0.00,WSDL version 420,2013-04-25 07:39:00,
2013-04-25 02:45:00,40.5,18.7,29.88,North,-999,-999.0,-999.0,41,0.00,,,0.00,WSDL version 420,2013-04-25 07:45:00,
2013-04-25 02:51:00,40.4,19.0,29.88,North,-999,-999.0,-999.0,42,0.00,,,0.00,WSDL version 420,2013-04-25 07:51:00,
2013-04-25 02:57:00,40.6,19.3,29.88,North,-999,-999.0,-999.0,42,0.00,,,0.00,WSDL version 420,2013-04-25 07:57:00,
2013-04-25 03:03:00,40.6,19.3,29.88,North,-999,-999.0,-999.0,42,0.00,,,0.00,WSDL version 420,2013-04-25 08:03:00,
2013-04-25 03:09:00,40.3,19.0,29.88,North,-999,-999.0,-999.0,42,0.00,,,0.00,WSDL version 420,2013-04-25 08:09:00,
2013-04-25 03:15:00,40.1,18.8,29.88,North,-999,-999.0,-999.0,42,0.00,,,0.00,WSDL version 420,2013-04-25 08:15:00,
2013-04-25 03:21:00,39.6,18.5,29.88,North,-999,-999.0,-999.0,43,0.00,,,0.00,WSDL version 420,2013-04-25 08:21:00,
2013-04-25 03:27:00,39.8,19.2,29.88,North,-999,-999.0,-999.0,43,0.00,,,0.00,WSDL version 420,2013-04-25 08:27:00,
2013-04-25 03:33:00,39.6,18.9,29.88,North,-999,-999.0,-999.0,43,0.00,,,0.00,WSDL version 420,2013-04-25 08:33:00,
2013-04-25 03:39:00,39.8,19.3,29.88,North,-999,-999.0,-999.0,43,0.00,,,0.00,WSDL version 420,2013-04-25 08:39:00,
2013-04-25 03:45:00,39.5,18.8,29.88,North,-999,-999.0,-999.0,43,0.00,,,0.00,WSDL version 420,2013-04-25 08:45:00,
2013-04-25 03:51:00,39.3,18.8,29.88,North,-999,-999.0,-999.0,44,0.00,,,0.00,WSDL version 420,2013-04-25 08:51:00,
2013-04-25 03:57:00,39.7,19.4,29.88,North,-999,-999.0,-999.0,43,0.00,,,0.00,WSDL version 420,2013-04-25 08:57:00,
2013-04-25 04:03:00,39.7,19.1,29.88,North,-999,-999.0,-999.0,43,0.00,,,0.00,WSDL version 420,2013-04-25 09:03:00,
2013-04-25 04:09:00,39.4,18.4,29.88,North,-999,-999.0,-999.0,43,0.00,,,0.00,WSDL version 420,2013-04-25 09:09:00,
2013-04-25 04:15:00,39.4,18.8,29.88,North,-999,-999.0,-999.0,43,0.00,,,0.00,WSDL version 420,2013-04-25 09:15:00,
2013-04-25 04:21:00,39.3,18.6,29.88,North,-999,-999.0,-999.0,42,0.00,,,0.00,WSDL version 420,2013-04-25 09:21:00,
2013-04-25 04:27:00,39.1,18.5,29.88,North,-999,-999.0,-999.0,43,0.00,,,0.00,WSDL version 420,2013-04-25 09:27:00,
2013-04-25 04:33:00,39.4,19.0,29.88,North,-999,-999.0,-999.0,44,0.00,,,0.00,WSDL version 420,2013-04-25 09:33:00,
2013-04-25 04:39:00,39.6,18.9,29.88,North,-999,-999.0,-999.0,43,0.00,,,0.00,WSDL version 420,2013-04-25 09:39:00,
2013-04-25 04:45:00,39.6,18.9,29.91,North,-999,-999.0,-999.0,43,0.00,,,0.00,WSDL version 420,2013-04-25 09:45:00,
2013-04-25 04:51:00,39.4,18.8,29.91,North,-999,-999.0,-999.0,43,0.00,,,0.00,WSDL version 420,2013-04-25 09:51:00,
2013-04-25 04:57:00,39.2,18.6,29.91,North,-999,-999.0,-999.0,43,0.00,,,0.00,WSDL version 420,2013-04-25 09:57:00,
2013-04-25 05:03:00,39.3,18.7,29.91,North,-999,-999.0,-999.0,43,0.00,,,0.00,WSDL version 420,2013-04-25 10:03:00,
2013-04-25 05:09:00,38.8,18.3,29.91,North,-999,-999.0,-999.0,43,0.00,,,0.00,WSDL version 420,2013-04-25 10:09:00,
2013-04-25 05:15:00,38.2,17.3,29.91,North,-999,-999.0,-999.0,42,0.00,,,0.00,WSDL version 420,2013-04-25 10:15:00,
2013-04-25 05:21:00,37.9,17.4,29.91,North,-999,-999.0,-999.0,43,0.00,,,0.00,WSDL version 420,2013-04-25 10:21:00,
2013-04-25 05:27:00,38.1,18.1,29.91,North,-999,-999.0,-999.0,44,0.00,,,0.00,WSDL version 420,2013-04-25 10:27:00,
2013-04-25 05:33:00,38.3,18.3,29.91,North,-999,-999.0,-999.0,44,0.00,,,0.00,WSDL version 420,2013-04-25 10:33:00,
2013-04-25 05:39:00,38.4,18.6,29.91,North,-999,-999.0,-999.0,45,0.00,,,0.00,WSDL version 420,2013-04-25 10:39:00,
2013-04-25 05:45:00,38.8,19.2,29.91,North,-999,-999.0,-999.0,45,0.00,,,0.00,WSDL version 420,2013-04-25 10:45:00,
2013-04-25 05:51:00,38.5,18.2,29.91,North,-999,-999.0,-999.0,43,0.00,,,0.00,WSDL version 420,2013-04-25 10:51:00,
2013-04-25 05:57:00,38.0,17.5,29.91,North,-999,-999.0,-999.0,43,0.00,,,0.00,WSDL version 420,2013-04-25 10:57:00,
2013-04-25 06:03:00,37.9,17.6,29.91,North,-999,-999.0,-999.0,44,0.00,,,0.00,WSDL version 420,2013-04-25 11:03:00,
2013-04-25 06:09:00,37.7,17.3,29.91,North,-999,-999.0,-999.0,43,0.00,,,0.00,WSDL version 420,2013-04-25 11:09:00,
2013-04-25 06:15:00,37.7,17.7,29.91,North,-999,-999.0,-999.0,44,0.00,,,0.00,WSDL version 420,2013-04-25 11:15:00,
2013-04-25 06:21:00,37.9,18.0,29.91,North,-999,-999.0,-999.0,45,0.00,,,0.00,WSDL version 420,2013-04-25 11:21:00,
2013-04-25 06:27:00,38.2,18.7,29.91,North,-999,-999.0,-999.0,44,0.00,,,0.00,WSDL version 420,2013-04-25 11:27:00,
2013-04-25 06:33:00,37.9,17.7,29.91,North,-999,-999.0,-999.0,43,0.00,,,0.00,WSDL version 420,2013-04-25 11:33:00,
2013-04-25 06:39:00,37.6,17.1,29.91,North,-999,-999.0,-999.0,43,0.00,,,0.00,WSDL version 420,2013-04-25 11:39:00,
2013-04-25 06:45:00,37.8,17.8,29.91,North,-999,-999.0,-999.0,44,0.00,,,0.00,WSDL version 420,2013-04-25 11:45:00,
2013-04-25 06:51:00,38.1,18.1,29.91,North,-999,-999.0,-999.0,44,0.00,,,0.00,WSDL version 420,2013-04-25 11:51:00,
2013-04-25 06:57:00,38.1,18.1,29.94,North,-999,-999.0,-999.0,44,0.00,,,0.00,WSDL version 420,2013-04-25 11:57:00,
2013-04-25 07:03:00,38.0,18.0,29.94,North,-999,-999.0,-999.0,44,0.00,,,0.00,WSDL version 420,2013-04-25 12:03:00,
2013-04-25 07:09:00,37.9,18.0,29.94,North,-999,-999.0,-999.0,44,0.00,,,0.00,WSDL version 420,2013-04-25 12:09:00,
2013-04-25 07:15:00,38.3,19.2,29.94,North,-999,-999.0,-999.0,46,0.00,,,0.00,WSDL version 420,2013-04-25 12:15:00,
2013-04-25 07:21:00,38.8,19.8,29.94,North,-999,-999.0,-999.0,46,0.00,,,0.00,WSDL version 420,2013-04-25 12:21:00,
2013-04-25 07:27:00,39.1,19.8,29.94,North,-999,-999.0,-999.0,45,0.00,,,0.00,WSDL version 420,2013-04-25 12:27:00,
2013-04-25 07:33:00,39.4,19.9,29.94,North,-999,-999.0,-999.0,45,0.00,,,0.00,WSDL version 420,2013-04-25 12:33:00,
2013-04-25 07:39:00,39.6,20.0,29.94,North,-999,-999.0,-999.0,45,0.00,,,0.00,WSDL version 420,2013-04-25 12:39:00,
2013-04-25 07:45:00,39.8,20.2,29.94,North,-999,-999.0,-999.0,45,0.00,,,0.00,WSDL version 420,2013-04-25 12:45:00,
2013-04-25 07:51:00,40.4,20.7,29.94,North,-999,-999.0,-999.0,45,0.00,,,0.00,WSDL version 420,2013-04-25 12:51:00,
2013-04-25 07:57:00,40.8,21.1,29.94,North,-999,-999.0,-999.0,45,0.00,,,0.00,WSDL version 420,2013-04-25 12:57:00,
2013-04-25 08:03:00,41.3,21.6,29.94,North,-999,-999.0,-999.0,45,0.00,,,0.00,WSDL version 420,2013-04-25 13:03:00,
2013-04-25 08:09:00,41.8,21.9,29.94,North,-999,-999.0,-999.0,45,0.00,,,0.00,WSDL version 420,2013-04-25 13:09:00,
2013-04-25 08:15:00,42.4,22.5,29.94,North,-999,-999.0,-999.0,45,0.00,,,0.00,WSDL version 420,2013-04-25 13:15:00,
2013-04-25 08:21:00,42.8,22.9,29.94,North,-999,-999.0,-999.0,45,0.00,,,0.00,WSDL version 420,2013-04-25 13:21:00,
2013-04-25 08:27:00,43.6,23.7,29.97,North,-999,-999.0,-999.0,45,0.00,,,0.00,WSDL version 420,2013-04-25 13:27:00,
2013-04-25 08:33:00,44.5,24.8,29.97,North,-999,-999.0,-999.0,46,0.00,,,0.00,WSDL version 420,2013-04-25 13:33:00,
2013-04-25 08:39:00,45.5,25.7,29.97,North,-999,-999.0,-999.0,45,0.00,,,0.00,WSDL version 420,2013-04-25 13:39:00,
2013-04-25 08:45:00,46.3,26.3,29.94,North,-999,-999.0,-999.0,45,0.00,,,0.00,WSDL version 420,2013-04-25 13:45:00,
2013-04-25 08:51:00,47.1,26.6,29.94,North,-999,-999.0,-999.0,45,0.00,,,0.00,WSDL version 420,2013-04-25 13:51:00,
2013-04-25 08:57:00,48.0,27.2,29.97,North,-999,-999.0,-999.0,44,0.00,,,0.00,WSDL version 420,2013-04-25 13:57:00,
2013-04-25 09:03:00,49.0,27.8,29.97,North,-999,-999.0,-999.0,42,0.00,,,0.00,WSDL version 420,2013-04-25 14:03:00,
2013-04-25 09:09:00,49.8,27.4,29.97,North,-999,-999.0,-999.0,41,0.00,,,0.00,WSDL version 420,2013-04-25 14:09:00,
2013-04-25 09:15:00,50.5,27.0,29.97,North,-999,-999.0,-999.0,39,0.00,,,0.00,WSDL version 420,2013-04-25 14:15:00,
2013-04-25 09:21:00,51.1,26.7,29.97,North,-999,-999.0,-999.0,38,0.00,,,0.00,WSDL version 420,2013-04-25 14:21:00,
2013-04-25 09:27:00,51.8,26.4,29.97,North,-999,-999.0,-999.0,36,0.00,,,0.00,WSDL version 420,2013-04-25 14:27:00,
2013-04-25 09:33:00,52.8,24.1,29.97,North,-999,-999.0,-999.0,33,0.00,,,0.00,WSDL version 420,2013-04-25 14:33:00,
2013-04-25 09:39:00,53.3,24.4,29.97,North,-999,-999.0,-999.0,32,0.00,,,0.00,WSDL version 420,2013-04-25 14:39:00,
2013-04-25 09:45:00,53.9,23.9,29.97,North,-999,-999.0,-999.0,31,0.00,,,0.00,WSDL version 420,2013-04-25 14:45:00,
2013-04-25 09:51:00,54.7,25.4,29.97,North,-999,-999.0,-999.0,32,0.00,,,0.00,WSDL version 420,2013-04-25 14:51:00,
2013-04-25 09:57:00,55.6,23.8,29.97,North,-999,-999.0,-999.0,28,0.00,,,0.00,WSDL version 420,2013-04-25 14:57:00,
2013-04-25 10:03:00,56.1,23.1,29.97,North,-999,-999.0,-999.0,27,0.00,,,0.00,WSDL version 420,2013-04-25 15:03:00,
2013-04-25 10:09:00,56.3,21.9,29.97,North,-999,-999.0,-999.0,26,0.00,,,0.00,WSDL version 420,2013-04-25 15:09:00,
2013-04-25 10:15:00,56.7,22.2,29.97,North,-999,-999.0,-999.0,26,0.00,,,0.00,WSDL version 420,2013-04-25 15:15:00,
2013-04-25 10:21:00,57.2,21.8,29.97,North,-999,-999.0,-999.0,25,0.00,,,0.00,WSDL version 420,2013-04-25 15:21:00,
2013-04-25 10:27:00,57.4,21.7,29.97,North,-999,-999.0,-999.0,25,0.00,,,0.00,WSDL version 420,2013-04-25 15:27:00,
2013-04-25 10:33:00,57.9,22.3,29.97,North,-999,-999.0,-999.0,25,0.00,,,0.00,WSDL version 420,2013-04-25 15:33:00,
2013-04-25 10:39:00,58.4,22.8,29.97,North,-999,-999.0,-999.0,25,0.00,,,0.00,WSDL version 420,2013-04-25 15:39:00,
2013-04-25 10:45:00,58.9,22.5,29.97,North,-999,-999.0,-999.0,24,0.00,,,0.00,WSDL version 420,2013-04-25 15:45:00,
2013-04-25 10:51:00,59.2,22.4,29.97,North,-999,-999.0,-999.0,24,0.00,,,0.00,WSDL version 420,2013-04-25 15:51:00,
2013-04-25 10:57:00,59.5,22.7,29.97,North,-999,-999.0,-999.0,24,0.00,,,0.00,WSDL version 420,2013-04-25 15:57:00,
2013-04-25 11:03:00,60.1,23.2,29.97,North,-999,-999.0,-999.0,24,0.00,,,0.00,WSDL version 420,2013-04-25 16:03:00,
2013-04-25 11:09:00,60.8,23.8,29.97,North,-999,-999.0,-999.0,24,0.00,,,0.00,WSDL version 420,2013-04-25 16:09:00,
2013-04-25 11:15:00,61.1,21.9,29.97,North,-999,-999.0,-999.0,21,0.00,,,0.00,WSDL version 420,2013-04-25 16:15:00,
2013-04-25 11:21:00,61.2,21.0,29.97,North,-999,-999.0,-999.0,21,0.00,,,0.00,WSDL version 420,2013-04-25 16:21:00,
2013-04-25 11:27:00,61.6,21.3,29.97,North,-999,-999.0,-999.0,21,0.00,,,0.00,WSDL version 420,2013-04-25 16:27:00,
2013-04-25 11:33:00,61.9,21.5,29.97,North,-999,-999.0,-999.0,21,0.00,,,0.00,WSDL version 420,2013-04-25 16:33:00,
2013-04-25 11:39:00,62.2,21.8,29.97,North,-999,-999.0,-999.0,21,0.00,,,0.00,WSDL version 420,2013-04-25 16:39:00,
2013-04-25 11:45:00,62.8,22.3,29.97,North,-999,-999.0,-999.0,21,0.00,,,0.00,WSDL version 420,2013-04-25 16:45:00,
2013-04-25 11:51:00,63.3,22.7,29.97,North,-999,-999.0,-999.0,21,0.00,,,0.00,WSDL version 420,2013-04-25 16:51:00,
2013-04-25 11:57:00,63.9,23.2,29.97,North,-999,-999.0,-999.0,21,0.00,,,0.00,WSDL version 420,2013-04-25 16:57:00,
2013-04-25 12:03:00,64.5,22.8,29.97,North,-999,-999.0,-999.0,20,0.00,,,0.00,WSDL version 420,2013-04-25 17:03:00,
2013-04-25 12:09:00,65.3,22.6,29.97,North,-999,-999.0,-999.0,18,0.00,,,0.00,WSDL version 420,2013-04-25 17:09:00,
2013-04-25 12:15:00,65.0,20.5,29.97,North,-999,-999.0,-999.0,18,0.00,,,0.00,WSDL version 420,2013-04-25 17:15:00,
2013-04-25 12:21:00,64.7,20.2,29.97,North,-999,-999.0,-999.0,18,0.00,,,0.00,WSDL version 420,2013-04-25 17:21:00,
2013-04-25 12:27:00,64.7,20.2,29.97,North,-999,-999.0,-999.0,18,0.00,,,0.00,WSDL version 420,2013-04-25 17:27:00,
2013-04-25 12:33:00,64.7,20.2,29.97,North,-999,-999.0,-999.0,18,0.00,,,0.00,WSDL version 420,2013-04-25 17:33:00,
2013-04-25 12:39:00,64.9,20.4,29.97,North,-999,-999.0,-999.0,18,0.00,,,0.00,WSDL version 420,2013-04-25 17:39:00,
2013-04-25 12:45:00,65.3,20.0,29.97,North,-999,-999.0,-999.0,18,0.00,,,0.00,WSDL version 420,2013-04-25 17:45:00,
2013-04-25 12:51:00,65.6,21.0,29.97,North,-999,-999.0,-999.0,18,0.00,,,0.00,WSDL version 420,2013-04-25 17:51:00,
2013-04-25 12:57:00,65.8,18.3,29.97,North,-999,-999.0,-999.0,15,0.00,,,0.00,WSDL version 420,2013-04-25 17:57:00,
2013-04-25 13:03:00,65.9,21.2,29.97,North,-999,-999.0,-999.0,18,0.00,,,0.00,WSDL version 420,2013-04-25 18:03:00,
2013-04-25 13:09:00,65.9,19.5,29.97,North,-999,-999.0,-999.0,15,0.00,,,0.00,WSDL version 420,2013-04-25 18:09:00,
2013-04-25 13:15:00,66.1,19.7,29.97,North,-999,-999.0,-999.0,15,0.00,,,0.00,WSDL version 420,2013-04-25 18:15:00,
2013-04-25 13:21:00,66.1,20.2,29.97,North,-999,-999.0,-999.0,17,0.00,,,0.00,WSDL version 420,2013-04-25 18:21:00,
2013-04-25 13:27:00,66.4,20.2,29.97,North,-999,-999.0,-999.0,17,0.00,,,0.00,WSDL version 420,2013-04-25 18:27:00,
2013-04-25 13:33:00,66.3,20.2,29.97,North,-999,-999.0,-999.0,17,0.00,,,0.00,WSDL version 420,2013-04-25 18:33:00,
2013-04-25 13:39:00,66.3,20.2,29.97,North,-999,-999.0,-999.0,17,0.00,,,0.00,WSDL version 420,2013-04-25 18:39:00,
2013-04-25 13:45:00,66.3,20.2,29.97,North,-999,-999.0,-999.0,17,0.00,,,0.00,WSDL version 420,2013-04-25 18:45:00,
2013-04-25 13:51:00,66.0,20.8,29.97,North,-999,-999.0,-999.0,18,0.00,,,0.00,WSDL version 420,2013-04-25 18:51:00,
2013-04-25 13:57:00,65.8,21.2,29.97,North,-999,-999.0,-999.0,18,0.00,,,0.00,WSDL version 420,2013-04-25 18:57:00,
2013-04-25 14:03:00,65.6,21.0,29.97,North,-999,-999.0,-999.0,18,0.00,,,0.00,WSDL version 420,2013-04-25 19:03:00,
2013-04-25 14:09:00,65.6,21.0,29.97,North,-999,-999.0,-999.0,18,0.00,,,0.00,WSDL version 420,2013-04-25 19:09:00,
2013-04-25 14:15:00,65.8,21.2,29.97,North,-999,-999.0,-999.0,18,0.00,,,0.00,WSDL version 420,2013-04-25 19:15:00,
2013-04-25 14:21:00,65.9,21.2,29.97,North,-999,-999.0,-999.0,18,0.00,,,0.00,WSDL version 420,2013-04-25 19:21:00,
2013-04-25 14:27:00,65.7,21.1,29.97,North,-999,-999.0,-999.0,18,0.00,,,0.00,WSDL version 420,2013-04-25 19:27:00,
2013-04-25 14:33:00,66.0,21.3,29.97,North,-999,-999.0,-999.0,18,0.00,,,0.00,WSDL version 420,2013-04-25 19:33:00,
2013-04-25 14:39:00,66.1,20.7,29.97,North,-999,-999.0,-999.0,17,0.00,,,0.00,WSDL version 420,2013-04-25 19:39:00,
2013-04-25 14:45:00,66.4,20.3,29.97,North,-999,-999.0,-999.0,17,0.00,,,0.00,WSDL version 420,2013-04-25 19:45:00,
2013-04-25 14:51:00,66.3,20.2,29.97,North,-999,-999.0,-999.0,17,0.00,,,0.00,WSDL version 420,2013-04-25 19:51:00,
2013-04-25 14:57:00,66.3,20.2,29.94,North,-999,-999.0,-999.0,17,0.00,,,0.00,WSDL version 420,2013-04-25 19:57:00,
2013-04-25 15:03:00,66.3,20.2,29.94,North,-999,-999.0,-999.0,17,0.00,,,0.00,WSDL version 420,2013-04-25 20:03:00,
2013-04-25 15:09:00,66.4,20.3,29.94,North,-999,-999.0,-999.0,17,0.00,,,0.00,WSDL version 420,2013-04-25 20:09:00,
2013-04-25 15:15:00,66.4,20.3,29.94,North,-999,-999.0,-999.0,17,0.00,,,0.00,WSDL version 420,2013-04-25 20:15:00,
2013-04-25 15:21:00,66.4,20.3,29.94,North,-999,-999.0,-999.0,17,0.00,,,0.00,WSDL version 420,2013-04-25 20:21:00,
2013-04-25 15:27:00,66.4,20.3,29.94,North,-999,-999.0,-999.0,17,0.00,,,0.00,WSDL version 420,2013-04-25 20:27:00,
2013-04-25 15:33:00,66.4,20.3,29.94,North,-999,-999.0,-999.0,17,0.00,,,0.00,WSDL version 420,2013-04-25 20:33:00,
2013-04-25 15:39:00,66.4,20.3,29.94,North,-999,-999.0,-999.0,17,0.00,,,0.00,WSDL version 420,2013-04-25 20:39:00,
2013-04-25 15:45:00,66.4,20.3,29.94,North,-999,-999.0,-999.0,17,0.00,,,0.00,WSDL version 420,2013-04-25 20:45:00,
2013-04-25 15:51:00,66.2,20.3,29.94,North,-999,-999.0,-999.0,18,0.00,,,0.00,WSDL version 420,2013-04-25 20:51:00,
2013-04-25 15:57:00,66.0,21.3,29.94,North,-999,-999.0,-999.0,18,0.00,,,0.00,WSDL version 420,2013-04-25 20:57:00,
2013-04-25 16:03:00,66.2,20.1,29.94,North,-999,-999.0,-999.0,17,0.00,,,0.00,WSDL version 420,2013-04-25 21:03:00,
2013-04-25 16:09:00,66.1,20.5,29.94,North,-999,-999.0,-999.0,18,0.00,,,0.00,WSDL version 420,2013-04-25 21:09:00,
2013-04-25 16:15:00,66.1,20.5,29.94,North,-999,-999.0,-999.0,17,0.00,,,0.00,WSDL version 420,2013-04-25 21:15:00,
2013-04-25 16:21:00,66.4,20.3,29.94,North,-999,-999.0,-999.0,17,0.00,,,0.00,WSDL version 420,2013-04-25 21:21:00,
2013-04-25 16:27:00,66.6,20.4,29.91,North,-999,-999.0,-999.0,17,0.00,,,0.00,WSDL version 420,2013-04-25 21:27:00,
2013-04-25 16:33:00,66.6,20.4,29.91,North,-999,-999.0,-999.0,17,0.00,,,0.00,WSDL version 420,2013-04-25 21:33:00,
2013-04-25 16:39:00,66.6,20.4,29.91,North,-999,-999.0,-999.0,17,0.00,,,0.00,WSDL version 420,2013-04-25 21:39:00,
2013-04-25 16:45:00,66.7,20.5,29.91,North,-999,-999.0,-999.0,17,0.00,,,0.00,WSDL version 420,2013-04-25 21:45:00,
2013-04-25 16:51:00,66.7,20.6,29.91,North,-999,-999.0,-999.0,17,0.00,,,0.00,WSDL version 420,2013-04-25 21:51:00,
2013-04-25 16:57:00,66.7,20.6,29.91,North,-999,-999.0,-999.0,17,0.00,,,0.00,WSDL version 420,2013-04-25 21:57:00,
2013-04-25 17:03:00,66.7,20.6,29.91,North,-999,-999.0,-999.0,17,0.00,,,0.00,WSDL version 420,2013-04-25 22:03:00,
2013-04-25 17:09:00,66.8,20.6,29.91,North,-999,-999.0,-999.0,17,0.00,,,0.00,WSDL version 420,2013-04-25 22:09:00,
2013-04-25 17:15:00,67.1,20.8,29.91,North,-999,-999.0,-999.0,17,0.00,,,0.00,WSDL version 420,2013-04-25 22:15:00,
2013-04-25 17:21:00,67.3,21.0,29.91,North,-999,-999.0,-999.0,17,0.00,,,0.00,WSDL version 420,2013-04-25 22:21:00,
2013-04-25 17:27:00,67.1,20.9,29.91,North,-999,-999.0,-999.0,17,0.00,,,0.00,WSDL version 420,2013-04-25 22:27:00,
2013-04-25 17:33:00,67.3,21.0,29.91,North,-999,-999.0,-999.0,17,0.00,,,0.00,WSDL version 420,2013-04-25 22:33:00,
2013-04-25 17:39:00,67.6,21.2,29.91,North,-999,-999.0,-999.0,17,0.00,,,0.00,WSDL version 420,2013-04-25 22:39:00,
2013-04-25 17:45:00,68.5,22.0,29.91,North,-999,-999.0,-999.0,17,0.00,,,0.00,WSDL version 420,2013-04-25 22:45:00,
2013-04-25 17:51:00,69.1,22.5,29.91,North,-999,-999.0,-999.0,17,0.00,,,0.00,WSDL version 420,2013-04-25 22:51:00,
2013-04-25 17:57:00,70.5,23.6,29.94,North,-999,-999.0,-999.0,17,0.00,,,0.00,WSDL version 420,2013-04-25 22:57:00,
2013-04-25 18:03:00,71.7,23.6,29.94,North,-999,-999.0,-999.0,16,0.00,,,0.00,WSDL version 420,2013-04-25 23:03:00,
2013-04-25 18:09:00,72.7,24.0,29.94,North,-999,-999.0,-999.0,16,0.00,,,0.00,WSDL version 420,2013-04-25 23:09:00,
2013-04-25 18:15:00,73.0,24.2,29.94,North,-999,-999.0,-999.0,16,0.00,,,0.00,WSDL version 420,2013-04-25 23:15:00,
2013-04-25 18:21:00,72.5,23.8,29.94,North,-999,-999.0,-999.0,16,0.00,,,0.00,WSDL version 420,2013-04-25 23:21:00,
2013-04-25 18:27:00,71.0,24.0,29.91,North,-999,-999.0,-999.0,17,0.00,,,0.00,WSDL version 420,2013-04-25 23:27:00,
2013-04-25 18:33:00,69.5,22.8,29.91,North,-999,-999.0,-999.0,17,0.00,,,0.00,WSDL version 420,2013-04-25 23:33:00,
2013-04-25 18:39:00,68.2,21.8,29.91,North,-999,-999.0,-999.0,17,0.00,,,0.00,WSDL version 420,2013-04-25 23:39:00,
2013-04-25 18:45:00,67.3,19.5,29.91,North,-999,-999.0,-999.0,15,0.00,,,0.00,WSDL version 420,2013-04-25 23:45:00,
2013-04-25 18:51:00,66.6,17.6,29.91,North,-999,-999.0,-999.0,15,0.00,,,0.00,WSDL version 420,2013-04-25 23:51:00,
2013-04-25 18:57:00,66.5,19.2,29.91,North,-999,-999.0,-999.0,17,0.00,,,0.00,WSDL version 420,2013-04-25 23:57:00,
2013-04-25 19:03:00,65.5,20.9,29.91,North,-999,-999.0,-999.0,18,0.00,,,0.00,WSDL version 420,2013-04-26 00:03:00,
2013-04-25 19:09:00,64.3,19.9,29.91,North,-999,-999.0,-999.0,18,0.00,,,0.00,WSDL version 420,2013-04-26 00:09:00,
2013-04-25 19:15:00,63.7,19.4,29.91,North,-999,-999.0,-999.0,18,0.00,,,0.00,WSDL version 420,2013-04-26 00:15:00,
2013-04-25 19:21:00,63.2,19.0,29.91,North,-999,-999.0,-999.0,18,0.00,,,0.00,WSDL version 420,2013-04-26 00:21:00,
2013-04-25 19:27:00,62.6,19.0,29.91,North,-999,-999.0,-999.0,19,0.00,,,0.00,WSDL version 420,2013-04-26 00:27:00,
2013-04-25 19:33:00,61.9,19.2,29.91,North,-999,-999.0,-999.0,19,0.00,,,0.00,WSDL version 420,2013-04-26 00:33:00,
2013-04-25 19:39:00,61.5,18.9,29.91,North,-999,-999.0,-999.0,19,0.00,,,0.00,WSDL version 420,2013-04-26 00:39:00,
2013-04-25 19:45:00,61.0,18.4,29.91,North,-999,-999.0,-999.0,19,0.00,,,0.00,WSDL version 420,2013-04-26 00:45:00,
2013-04-25 19:51:00,60.7,18.2,29.91,North,-999,-999.0,-999.0,19,0.00,,,0.00,WSDL version 420,2013-04-26 00:51:00,
2013-04-25 19:57:00,60.3,17.9,29.91,North,-999,-999.0,-999.0,19,0.00,,,0.00,WSDL version 420,2013-04-26 00:57:00,
2013-04-25 20:03:00,60.0,17.6,29.91,North,-999,-999.0,-999.0,19,0.00,,,0.00,WSDL version 420,2013-04-26 01:03:00,
2013-04-25 20:09:00,59.7,17.4,29.91,North,-999,-999.0,-999.0,19,0.00,,,0.00,WSDL version 420,2013-04-26 01:09:00,
2013-04-25 20:15:00,59.3,17.1,29.91,North,-999,-999.0,-999.0,19,0.00,,,0.00,WSDL version 420,2013-04-26 01:15:00,
2013-04-25 20:21:00,59.1,16.9,29.91,North,-999,-999.0,-999.0,19,0.00,,,0.00,WSDL version 420,2013-04-26 01:21:00,
2013-04-25 20:27:00,58.8,16.7,29.91,North,-999,-999.0,-999.0,19,0.00,,,0.00,WSDL version 420,2013-04-26 01:27:00,
2013-04-25 20:33:00,58.5,16.4,29.91,North,-999,-999.0,-999.0,19,0.00,,,0.00,WSDL version 420,2013-04-26 01:33:00,
2013-04-25 20:39:00,57.7,15.7,29.91,North,-999,-999.0,-999.0,19,0.00,,,0.00,WSDL version 420,2013-04-26 01:39:00,
2013-04-25 20:45:00,57.5,18.9,29.91,North,-999,-999.0,-999.0,22,0.00,,,0.00,WSDL version 420,2013-04-26 01:45:00,
2013-04-25 20:51:00,57.2,18.7,29.91,North,-999,-999.0,-999.0,22,0.00,,,0.00,WSDL version 420,2013-04-26 01:51:00,
2013-04-25 20:57:00,56.0,17.7,29.91,North,-999,-999.0,-999.0,22,0.00,,,0.00,WSDL version 420,2013-04-26 01:57:00,
2013-04-25 21:03:00,55.1,18.0,29.91,North,-999,-999.0,-999.0,23,0.00,,,0.00,WSDL version 420,2013-04-26 02:03:00,
2013-04-25 21:09:00,55.5,17.3,29.91,North,-999,-999.0,-999.0,22,0.00,,,0.00,WSDL version 420,2013-04-26 02:09:00,
2013-04-25 21:15:00,55.1,17.8,29.91,North,-999,-999.0,-999.0,23,0.00,,,0.00,WSDL version 420,2013-04-26 02:15:00,
2013-04-25 21:21:00,54.4,17.7,29.91,North,-999,-999.0,-999.0,25,0.00,,,0.00,WSDL version 420,2013-04-26 02:21:00,
2013-04-25 21:27:00,54.5,19.4,29.91,North,-999,-999.0,-999.0,25,0.00,,,0.00,WSDL version 420,2013-04-26 02:27:00,
2013-04-25 21:33:00,53.8,19.6,29.91,North,-999,-999.0,-999.0,26,0.00,,,0.00,WSDL version 420,2013-04-26 02:33:00,
2013-04-25 21:39:00,53.5,19.5,29.91,North,-999,-999.0,-999.0,26,0.00,,,0.00,WSDL version 420,2013-04-26 02:39:00,
2013-04-25 21:45:00,53.0,19.0,29.91,North,-999,-999.0,-999.0,26,0.00,,,0.00,WSDL version 420,2013-04-26 02:45:00,
2013-04-25 21:51:00,53.1,19.1,29.91,North,-999,-999.0,-999.0,26,0.00,,,0.00,WSDL version 420,2013-04-26 02:51:00,
2013-04-25 21:57:00,53.1,19.1,29.91,North,-999,-999.0,-999.0,26,0.00,,,0.00,WSDL version 420,2013-04-26 02:57:00,
2013-04-25 22:03:00,53.1,19.9,29.91,North,-999,-999.0,-999.0,27,0.00,,,0.00,WSDL version 420,2013-04-26 03:03:00,
2013-04-25 22:09:00,53.5,20.0,29.91,North,-999,-999.0,-999.0,26,0.00,,,0.00,WSDL version 420,2013-04-26 03:09:00,
2013-04-25 22:15:00,53.6,19.6,29.91,North,-999,-999.0,-999.0,26,0.00,,,0.00,WSDL version 420,2013-04-26 03:15:00,
2013-04-25 22:21:00,53.5,19.8,29.91,North,-999,-999.0,-999.0,27,0.00,,,0.00,WSDL version 420,2013-04-26 03:21:00,
2013-04-25 22:27:00,53.2,20.1,29.94,North,-999,-999.0,-999.0,27,0.00,,,0.00,WSDL version 420,2013-04-26 03:27:00,
2013-04-25 22:33:00,52.3,19.3,29.94,North,-999,-999.0,-999.0,27,0.00,,,0.00,WSDL version 420,2013-04-26 03:33:00,
2013-04-25 22:39:00,51.5,18.7,29.94,North,-999,-999.0,-999.0,27,0.00,,,0.00,WSDL version 420,2013-04-26 03:39:00,
2013-04-25 22:45:00,52.0,19.1,29.94,North,-999,-999.0,-999.0,27,0.00,,,0.00,WSDL version 420,2013-04-26 03:45:00,
2013-04-25 22:51:00,52.3,19.3,29.94,North,-999,-999.0,-999.0,27,0.00,,,0.00,WSDL version 420,2013-04-26 03:51:00,
2013-04-25 22:57:00,52.0,19.4,29.91,North,-999,-999.0,-999.0,28,0.00,,,0.00,WSDL version 420,2013-04-26 03:57:00,
2013-04-25 23:03:00,51.7,19.2,29.91,North,-999,-999.0,-999.0,28,0.00,,,0.00,WSDL version 420,2013-04-26 04:03:00,
2013-04-25 23:06:00,51.6,19.5,29.91,North,-999,-999.0,-999.0,28,0.00,,,0.00,WSDL version 420,2013-04-26 04:06:00,
2013-04-25 23:12:00,51.9,19.8,29.91,North,-999,-999.0,-999.0,28,0.00,,,0.00,WSDL version 420,2013-04-26 04:12:00,
2013-04-25 23:18:00,51.9,19.8,29.91,North,-999,-999.0,-999.0,28,0.00,,,0.00,WSDL version 420,2013-04-26 04:18:00,
2013-04-25 23:21:00,51.6,19.9,29.91,North,-999,-999.0,-999.0,28,0.00,,,0.00,WSDL version 420,2013-04-26 04:21:00,
2013-04-25 23:24:00,51.3,19.9,29.91,North,-999,-999.0,-999.0,29,0.00,,,0.00,WSDL version 420,2013-04-26 04:24:00,
2013-04-25 23:30:00,50.5,19.5,29.91,North,-999,-999.0,-999.0,29,0.00,,,0.00,WSDL version 420,2013-04-26 04:30:00,
2013-04-25 23:36:00,50.8,20.2,29.91,North,-999,-999.0,-999.0,30,0.00,,,0.00,WSDL version 420,2013-04-26 04:36:00,
2013-04-25 23:42:00,51.0,20.4,29.91,North,-999,-999.0,-999.0,30,0.00,,,0.00,WSDL version 420,2013-04-26 04:42:00,
2013-04-25 23:48:00,51.3,21.0,29.91,North,-999,-999.0,-999.0,31,0.00,,,0.00,WSDL version 420,2013-04-26 04:48:00,
2013-04-25 23:54:00,51.4,21.0,29.91,North,-999,-999.0,-999.0,30,0.00,,,0.00,WSDL version 420,2013-04-26 04:54:00,